Allensville, Pennsylvania
Current Conditions -  °F | °C
As of 12:53 PM on Sunday 25 Jan 2015 (Local Time) from KUNV Reporting Station
Light Snow Light Snow  
Wind Chill: 34°   Ceiling: 2400
Heat Index: 34°   Visibility: 6mi
Dew Point: 27°   Wind: 0mph
Humidity: 75%   Direction: NA
Pressure: 29.79"   Gusts: NA
Location:  40.54°N, 77.82°W
Report Text: KUNV 251753Z 00000KT 6SM -SN OVC024 01/M03 A2979
Loading
Personal Weather Stations






























Interactive Weather Map New forecast layout! Learn more

10-Day Weather Forecast

Advertisements
Track Severe Weather on mobile